KLMO

Vance Brand Airport

Longmont, Colorado, USA
METAR KLMO 231335Z AUTO 35005KT 10SM SCT075 OVC100 08/04 A3025 RMK AO2 T00820043
Observed Flight Rules
Oct-23 @ 13:35 UTC (21 minutes ago) Visual Flight Rules
Wind Visibility Clouds
350° at 5 knots 10 miles
  • Scattered at 7,500' AGL
  • Overcast at 10,000' AGL
Temperatures Readings
Current 8°C / 46°F
Dewpoint 4°C / 39°F
Humidity 76%
Altimeter 30.25" Hg
Pressure 1024 hPa
Elevation 1541
METAR KLMO 231335Z AUTO 35005KT 10SM SCT075 OVC100 08/04 A3025 RMK AO2 T00820043
Observed Flight Rules
Oct-23 @ 13:35 UTC
(21 minutes ago)
VFR
Wind Visibility
350° at 5 knots 10 miles
Clouds
  • Scattered at 7,500' AGL
  • Overcast at 10,000' AGL
Temperature Dewpoint
8°C / 46°F 4°C / 39°F
Humidity Altimeter Pressure
76% 30.25" Hg 1024 hPa